createdAt,value
2022-08-28T00:02:24.279Z,25.21
2022-08-28T00:04:51.407Z,25.22
2022-08-28T00:07:18.381Z,25.21
2022-08-28T00:09:45.005Z,25.21
2022-08-28T00:12:12.499Z,25.22
2022-08-28T00:14:39.456Z,25.19
2022-08-28T00:17:05.994Z,25.21
2022-08-28T00:19:36.629Z,25.20
2022-08-28T00:22:05.311Z,25.20
2022-08-28T00:24:31.814Z,25.22
2022-08-28T00:27:16.918Z,25.22
2022-08-28T00:29:45.131Z,25.15
2022-08-28T00:32:11.815Z,25.15
2022-08-28T00:34:38.882Z,25.16
2022-08-28T00:37:05.977Z,25.16
2022-08-28T00:39:32.770Z,25.15
2022-08-28T00:41:59.263Z,25.14
2022-08-28T00:44:27.051Z,25.15
2022-08-28T00:46:54.861Z,25.16
2022-08-28T00:49:24.014Z,25.17
2022-08-28T00:52:15.278Z,25.14
2022-08-28T00:54:58.694Z,25.16
2022-08-28T00:57:28.004Z,25.17
2022-08-28T00:59:54.497Z,25.16
2022-08-28T01:02:21.295Z,25.16
2022-08-28T01:04:48.328Z,25.16
2022-08-28T01:07:15.590Z,25.17
2022-08-28T01:09:45.753Z,25.17
2022-08-28T01:12:14.528Z,25.17
2022-08-28T01:14:41.690Z,25.17
2022-08-28T01:17:09.258Z,25.17
2022-08-28T01:19:40.871Z,25.17
2022-08-28T01:22:07.407Z,25.16
2022-08-28T01:24:35.605Z,25.15
2022-08-28T01:27:02.080Z,25.16
2022-08-28T01:29:29.370Z,25.16
2022-08-28T01:31:56.342Z,25.17
2022-08-28T01:34:22.790Z,25.16
2022-08-28T01:36:49.321Z,25.13
2022-08-28T01:39:17.041Z,25.11
2022-08-28T01:41:46.352Z,25.12
2022-08-28T01:44:14.042Z,25.12
2022-08-28T01:46:43.779Z,25.09
2022-08-28T01:49:12.034Z,25.10
2022-08-28T01:51:39.033Z,25.11
2022-08-28T01:54:06.138Z,25.06
2022-08-28T01:56:33.178Z,25.08
2022-08-28T01:59:01.518Z,25.09
2022-08-28T02:01:28.060Z,25.06
2022-08-28T02:03:54.650Z,25.06
2022-08-28T02:06:21.741Z,25.08
2022-08-28T02:08:49.979Z,25.06
2022-08-28T02:11:17.018Z,25.06
2022-08-28T02:13:43.516Z,25.07
2022-08-28T02:16:11.073Z,25.07
2022-08-28T02:18:38.106Z,25.07
2022-08-28T02:21:05.082Z,25.07
2022-08-28T02:23:31.550Z,25.07
2022-08-28T02:25:58.042Z,25.04
2022-08-28T02:28:24.502Z,25.03
2022-08-28T02:30:51.097Z,25.02
2022-08-28T02:33:17.628Z,25.01
2022-08-28T02:35:44.221Z,25.03
2022-08-28T02:38:10.783Z,25.02
2022-08-28T02:40:38.286Z,25.03
2022-08-28T02:43:05.609Z,25.04
2022-08-28T02:45:32.773Z,25.04
2022-08-28T02:48:01.531Z,25.02
2022-08-28T02:50:29.870Z,25.00
2022-08-28T02:52:56.369Z,24.97
2022-08-28T02:55:24.657Z,25.00
2022-08-28T02:57:51.684Z,25.01
2022-08-28T03:00:22.662Z,25.01
2022-08-28T03:02:49.267Z,25.00
2022-08-28T03:05:17.114Z,25.00
2022-08-28T03:07:43.561Z,24.97
2022-08-28T03:10:10.340Z,24.98
2022-08-28T03:12:38.270Z,24.97
2022-08-28T03:15:06.129Z,24.98
2022-08-28T03:17:32.566Z,24.97
2022-08-28T03:19:59.130Z,24.98
2022-08-28T03:22:44.315Z,24.97
2022-08-28T03:25:11.811Z,24.95
2022-08-28T03:27:38.777Z,24.97
2022-08-28T03:30:07.047Z,24.95
2022-08-28T03:32:33.971Z,24.96
2022-08-28T03:35:00.429Z,24.94
2022-08-28T03:37:27.222Z,24.96
2022-08-28T03:39:53.944Z,24.95
2022-08-28T03:42:20.501Z,24.96
2022-08-28T03:44:49.086Z,24.95
2022-08-28T03:47:16.080Z,24.92
2022-08-28T03:49:42.622Z,24.92
2022-08-28T03:52:09.074Z,24.91
2022-08-28T03:54:36.067Z,24.92
2022-08-28T03:57:02.577Z,24.93
2022-08-28T03:59:31.695Z,24.88
2022-08-28T04:02:00.190Z,24.87
2022-08-28T04:04:26.705Z,24.88
2022-08-28T04:06:54.993Z,24.89
2022-08-28T04:09:21.560Z,24.87
2022-08-28T04:11:48.109Z,24.88
2022-08-28T04:14:14.602Z,24.88
2022-08-28T04:16:41.482Z,24.88
2022-08-28T04:19:08.028Z,24.84
2022-08-28T04:21:34.487Z,24.87
2022-08-28T04:24:00.944Z,24.85
2022-08-28T04:26:27.845Z,24.80
2022-08-28T04:28:55.242Z,24.79
2022-08-28T04:31:31.750Z,24.79
2022-08-28T04:34:05.025Z,24.80
2022-08-28T04:36:33.585Z,24.81
2022-08-28T04:39:00.679Z,24.84
2022-08-28T04:41:27.691Z,24.84
2022-08-28T04:43:56.441Z,24.83
2022-08-28T04:46:23.167Z,24.83
2022-08-28T04:48:50.113Z,24.83
2022-08-28T04:51:16.877Z,24.84
2022-08-28T04:53:43.965Z,24.82
2022-08-28T04:56:12.500Z,24.80
2022-08-28T04:58:39.653Z,24.80
2022-08-28T05:01:08.046Z,24.81
2022-08-28T05:03:34.696Z,24.80
2022-08-28T05:06:01.470Z,24.81
2022-08-28T05:08:29.563Z,24.82
2022-08-28T05:10:56.237Z,24.82
2022-08-28T05:13:24.311Z,24.83
2022-08-28T05:15:51.466Z,24.84
2022-08-28T05:18:19.061Z,24.85
2022-08-28T05:20:46.660Z,24.83
2022-08-28T05:23:13.934Z,24.85
2022-08-28T05:25:41.960Z,24.84
2022-08-28T05:28:11.995Z,24.84
2022-08-28T05:30:39.450Z,24.83
2022-08-28T05:33:06.832Z,24.82
2022-08-28T05:35:35.122Z,24.81
2022-08-28T05:38:01.578Z,24.78
2022-08-28T05:40:28.142Z,24.79
2022-08-28T05:42:54.615Z,24.79
2022-08-28T05:45:22.728Z,24.79
2022-08-28T05:47:49.490Z,24.80
2022-08-28T05:50:15.931Z,24.80
2022-08-28T05:52:42.718Z,24.81
2022-08-28T05:55:10.374Z,24.81
2022-08-28T05:57:36.906Z,24.78
2022-08-28T06:00:04.059Z,24.81
2022-08-28T06:02:30.514Z,24.81
2022-08-28T06:04:57.844Z,24.80
2022-08-28T06:07:24.386Z,24.78
2022-08-28T06:09:50.885Z,24.79
2022-08-28T06:12:17.273Z,24.78
2022-08-28T06:14:44.924Z,24.79
2022-08-28T06:17:11.422Z,24.79
2022-08-28T06:19:41.363Z,24.77
2022-08-28T06:22:10.062Z,24.78
2022-08-28T06:24:37.729Z,24.79
2022-08-28T06:27:04.370Z,24.78
2022-08-28T06:29:30.903Z,24.80
2022-08-28T06:32:02.133Z,24.78
2022-08-28T06:34:29.627Z,24.78
2022-08-28T06:36:56.568Z,24.78
2022-08-28T06:39:23.327Z,24.78
2022-08-28T06:41:50.077Z,24.77
2022-08-28T06:44:21.054Z,24.74
2022-08-28T06:46:57.822Z,24.73
2022-08-28T06:49:25.650Z,24.72
2022-08-28T06:51:53.796Z,24.73
2022-08-28T06:54:25.154Z,24.70
2022-08-28T06:59:37.343Z,24.68
2022-08-28T07:02:06.333Z,24.70
2022-08-28T07:04:34.164Z,24.68
2022-08-28T07:07:01.581Z,24.66
2022-08-28T07:09:31.055Z,24.65
2022-08-28T07:12:08.392Z,24.63
2022-08-28T07:14:35.118Z,24.64
2022-08-28T07:17:01.665Z,24.67
2022-08-28T07:19:34.324Z,24.67
2022-08-28T07:22:01.093Z,24.68
2022-08-28T07:24:29.386Z,24.64
2022-08-28T07:26:56.170Z,24.67
2022-08-28T07:29:22.721Z,24.70
2022-08-28T07:31:50.344Z,24.75
2022-08-28T07:34:17.870Z,24.79
2022-08-28T07:36:44.799Z,24.82
2022-08-28T07:39:12.598Z,24.84
2022-08-28T07:41:42.381Z,24.85
2022-08-28T07:44:28.362Z,24.89
2022-08-28T07:46:59.266Z,24.90
2022-08-28T07:49:28.924Z,24.92
2022-08-28T07:51:55.355Z,24.92
2022-08-28T07:54:22.630Z,24.94
2022-08-28T07:56:49.436Z,24.94
2022-08-28T07:59:17.447Z,24.94
2022-08-28T08:01:48.007Z,24.97
2022-08-28T08:04:16.239Z,25.00
2022-08-28T08:06:48.003Z,25.00
2022-08-28T08:09:16.011Z,25.00
2022-08-28T08:11:42.833Z,25.02
2022-08-28T08:14:09.649Z,25.03
2022-08-28T08:16:39.069Z,25.04
2022-08-28T08:19:06.429Z,25.04
2022-08-28T08:21:32.978Z,25.06
2022-08-28T08:23:59.568Z,25.07
2022-08-28T08:26:28.299Z,25.08
2022-08-28T08:28:55.751Z,25.08
2022-08-28T08:31:23.641Z,25.10
2022-08-28T08:33:52.257Z,25.13
2022-08-28T08:36:20.164Z,25.12
2022-08-28T08:38:47.115Z,25.14
2022-08-28T08:41:33.381Z,25.15
2022-08-28T08:44:03.015Z,25.16
2022-08-28T08:46:40.259Z,25.18
2022-08-28T08:49:12.870Z,25.17
2022-08-28T08:51:43.966Z,25.18
2022-08-28T08:54:13.390Z,25.19
2022-08-28T08:56:41.829Z,25.21
2022-08-28T08:59:14.247Z,25.19
2022-08-28T09:02:01.302Z,25.19
2022-08-28T09:04:42.787Z,25.20
2022-08-28T09:07:19.389Z,25.18
2022-08-28T09:09:53.238Z,25.19
2022-08-28T09:12:21.128Z,25.20
2022-08-28T09:14:54.211Z,25.21
2022-08-28T09:17:23.405Z,25.19
2022-08-28T09:19:49.873Z,25.14
2022-08-28T09:22:18.045Z,25.13
2022-08-28T09:24:44.477Z,25.09
2022-08-28T09:27:27.950Z,25.09
2022-08-28T09:30:08.947Z,25.05
2022-08-28T09:32:36.029Z,25.02
2022-08-28T09:35:12.065Z,25.01
2022-08-28T09:37:39.819Z,25.01
2022-08-28T09:40:48.481Z,25.02
2022-08-28T09:43:30.249Z,25.02
2022-08-28T09:46:15.925Z,24.99
2022-08-28T09:48:44.016Z,25.00
2022-08-28T09:51:12.960Z,25.00
2022-08-28T09:53:42.957Z,25.02
2022-08-28T09:59:29.002Z,25.00
2022-08-28T10:02:43.071Z,25.02
2022-08-28T10:05:12.989Z,24.99
2022-08-28T10:08:01.273Z,25.02
2022-08-28T10:10:36.824Z,25.02
2022-08-28T10:13:15.288Z,25.01
2022-08-28T10:15:43.546Z,25.03
2022-08-28T10:18:18.543Z,25.05
2022-08-28T10:21:03.439Z,25.04
2022-08-28T10:23:49.183Z,25.07
2022-08-28T10:26:34.789Z,25.13
2022-08-28T10:29:19.342Z,25.17
2022-08-28T10:32:11.449Z,25.17
2022-08-28T10:34:44.113Z,25.18
2022-08-28T10:37:27.082Z,25.20
2022-08-28T10:39:58.922Z,25.18
2022-08-28T10:42:35.859Z,25.22
2022-08-28T10:45:22.932Z,25.23
2022-08-28T10:47:52.021Z,25.23
2022-08-28T10:50:33.318Z,25.26
2022-08-28T10:53:06.339Z,25.26
2022-08-28T10:55:36.532Z,25.24
2022-08-28T10:58:25.012Z,25.28
2022-08-28T11:00:57.041Z,25.30
2022-08-28T11:03:34.406Z,25.31
2022-08-28T11:06:11.727Z,25.32
2022-08-28T11:08:39.635Z,25.31
2022-08-28T11:11:12.301Z,25.32
2022-08-28T11:13:41.965Z,25.33
2022-08-28T11:16:20.232Z,25.32
2022-08-28T11:19:05.348Z,25.32
2022-08-28T11:21:41.149Z,25.34
2022-08-28T11:24:10.739Z,25.34
2022-08-28T11:26:46.066Z,25.36
2022-08-28T11:29:32.431Z,25.36
2022-08-28T11:32:18.820Z,25.37
2022-08-28T11:35:04.287Z,25.37
2022-08-28T11:37:56.837Z,25.34
2022-08-28T11:40:23.554Z,25.39
2022-08-28T11:42:50.255Z,25.38
2022-08-28T11:45:21.538Z,25.38
2022-08-28T11:47:56.856Z,25.39
2022-08-28T11:50:25.362Z,25.39
2022-08-28T11:53:06.087Z,25.39
2022-08-28T11:55:38.997Z,25.41
2022-08-28T11:58:28.718Z,25.40
2022-08-28T12:01:01.553Z,25.40
2022-08-28T12:03:34.373Z,25.39
2022-08-28T12:06:01.581Z,25.39
2022-08-28T12:08:47.655Z,25.38
2022-08-28T12:11:32.761Z,25.34
2022-08-28T12:13:59.337Z,25.33
2022-08-28T12:16:26.614Z,25.32
2022-08-28T12:18:53.211Z,25.32
2022-08-28T12:21:24.914Z,25.30
2022-08-28T12:24:03.023Z,25.31
2022-08-28T12:26:36.084Z,25.31
2022-08-28T12:29:21.106Z,25.29
2022-08-28T12:32:11.435Z,25.30
2022-08-28T12:34:57.884Z,25.28
2022-08-28T12:37:30.477Z,25.27
2022-08-28T12:40:08.041Z,25.26
2022-08-28T12:42:37.955Z,25.27
2022-08-28T12:45:07.150Z,25.27
2022-08-28T12:47:35.169Z,25.25
2022-08-28T12:50:37.365Z,25.24
2022-08-28T12:53:11.203Z,25.25
2022-08-28T12:55:38.241Z,25.24
2022-08-28T12:58:05.013Z,25.24
2022-08-28T13:00:48.250Z,25.22
2022-08-28T13:03:14.832Z,25.23
2022-08-28T13:05:41.671Z,25.22
2022-08-28T13:08:11.430Z,25.21
2022-08-28T13:10:47.117Z,25.19
2022-08-28T13:13:19.811Z,25.20
2022-08-28T13:16:01.400Z,25.18
2022-08-28T13:18:34.050Z,25.20
2022-08-28T13:21:13.237Z,25.18
2022-08-28T13:23:40.062Z,25.17
2022-08-28T13:26:06.760Z,25.16
2022-08-28T13:28:37.692Z,25.15
2022-08-28T13:31:04.841Z,25.15
2022-08-28T13:33:31.487Z,25.14
2022-08-28T13:35:58.013Z,25.13
2022-08-28T13:38:25.173Z,25.14
2022-08-28T13:40:59.438Z,25.14
2022-08-28T13:43:27.646Z,25.12
2022-08-28T13:45:54.165Z,25.11
2022-08-28T13:48:25.581Z,25.11
2022-08-28T13:50:56.184Z,25.11
2022-08-28T13:53:25.897Z,25.10
2022-08-28T13:55:53.118Z,25.11
2022-08-28T13:58:19.828Z,25.09
2022-08-28T14:00:47.804Z,25.07
2022-08-28T14:03:33.716Z,25.09
2022-08-28T14:06:00.257Z,25.10
2022-08-28T14:08:26.938Z,25.08
2022-08-28T14:10:53.468Z,25.10
2022-08-28T14:13:20.332Z,25.05
2022-08-28T14:15:47.557Z,25.05
2022-08-28T14:18:14.282Z,25.04
2022-08-28T14:20:40.765Z,25.02
2022-08-28T14:23:08.727Z,25.04
2022-08-28T14:25:44.610Z,25.04
2022-08-28T14:28:11.594Z,25.05
2022-08-28T14:30:45.224Z,25.07
2022-08-28T14:33:11.858Z,25.04
2022-08-28T14:35:39.697Z,25.04
2022-08-28T14:38:06.423Z,25.03
2022-08-28T14:40:35.126Z,25.02
2022-08-28T14:43:01.807Z,25.01
2022-08-28T14:45:28.332Z,25.02
2022-08-28T14:47:54.753Z,25.01
2022-08-28T14:50:21.309Z,25.02
2022-08-28T14:52:50.703Z,24.99
2022-08-28T14:55:18.798Z,24.99
2022-08-28T14:57:48.924Z,25.00
2022-08-28T15:00:17.938Z,24.99
2022-08-28T15:02:44.860Z,25.00
2022-08-28T15:05:11.910Z,24.98
2022-08-28T15:07:38.585Z,24.89
2022-08-28T15:10:08.588Z,24.84
2022-08-28T15:12:35.771Z,24.91
2022-08-28T15:15:15.495Z,24.94
2022-08-28T15:17:41.956Z,24.96
2022-08-28T15:20:20.890Z,24.95
2022-08-28T15:22:49.752Z,24.88
2022-08-28T15:25:19.767Z,24.93
2022-08-28T15:27:48.466Z,24.94
2022-08-28T15:30:18.426Z,24.92
2022-08-28T15:32:48.105Z,24.91
2022-08-28T15:35:16.064Z,24.94
2022-08-28T15:37:42.981Z,24.91
2022-08-28T15:40:28.213Z,24.91
2022-08-28T15:43:10.802Z,24.92
2022-08-28T15:45:44.356Z,24.90
2022-08-28T15:48:17.803Z,24.90
2022-08-28T15:50:45.266Z,24.86
2022-08-28T15:53:19.974Z,24.85
2022-08-28T15:55:47.055Z,24.79
2022-08-28T15:58:15.477Z,24.80
2022-08-28T16:00:46.322Z,24.81
2022-08-28T16:03:19.672Z,24.81
2022-08-28T16:05:47.495Z,24.81
2022-08-28T16:08:16.507Z,24.79
2022-08-28T16:10:50.113Z,24.80
2022-08-28T16:13:17.836Z,24.81
2022-08-28T16:15:49.300Z,24.82
2022-08-28T16:18:17.850Z,24.80
2022-08-28T16:21:08.129Z,24.81
2022-08-28T16:23:35.552Z,24.78
2022-08-28T16:26:07.534Z,24.78
2022-08-28T16:28:42.591Z,24.80
2022-08-28T16:31:19.321Z,24.80
2022-08-28T16:33:49.143Z,24.79
2022-08-28T16:36:23.791Z,24.77
2022-08-28T16:39:00.355Z,24.78
2022-08-28T16:41:30.482Z,24.77
2022-08-28T16:43:58.547Z,24.79
2022-08-28T16:46:31.373Z,24.78
2022-08-28T16:49:07.145Z,24.78
2022-08-28T16:51:40.654Z,24.79
2022-08-28T16:54:17.560Z,24.80
2022-08-28T16:59:25.666Z,24.80
2022-08-28T17:01:54.533Z,24.78
2022-08-28T17:04:23.843Z,24.79
2022-08-28T17:06:50.564Z,24.79
2022-08-28T17:09:21.027Z,24.79
2022-08-28T17:11:55.951Z,24.80
2022-08-28T17:14:23.778Z,24.81
2022-08-28T17:16:50.842Z,24.80
2022-08-28T17:19:17.726Z,24.79
2022-08-28T17:22:02.890Z,24.80
2022-08-28T17:24:43.601Z,24.80
2022-08-28T17:27:22.545Z,24.80
2022-08-28T17:29:53.740Z,24.80
2022-08-28T17:35:41.830Z,24.78
2022-08-28T17:38:18.453Z,24.77
2022-08-28T17:40:49.489Z,24.76
2022-08-28T17:43:17.870Z,24.75
2022-08-28T17:45:48.328Z,24.75
2022-08-28T17:48:17.854Z,24.75
2022-08-28T17:50:46.474Z,24.78
2022-08-28T17:53:13.595Z,24.80
2022-08-28T17:55:46.637Z,24.79
2022-08-28T17:58:15.909Z,24.79
2022-08-28T18:00:46.992Z,24.81
2022-08-28T18:03:23.330Z,24.81
2022-08-28T18:05:51.215Z,24.81
2022-08-28T18:08:20.920Z,24.83
2022-08-28T18:10:48.907Z,24.82
2022-08-28T18:13:42.159Z,24.83
2022-08-28T18:16:10.925Z,24.85
2022-08-28T18:18:38.118Z,24.84
2022-08-28T18:21:04.899Z,24.85
2022-08-28T18:23:37.772Z,24.89
2022-08-28T18:26:06.655Z,24.88
2022-08-28T18:28:36.506Z,24.85
2022-08-28T18:31:05.751Z,24.88
2022-08-28T18:33:32.965Z,24.87
2022-08-28T18:36:00.087Z,24.88
2022-08-28T18:38:28.583Z,24.89
2022-08-28T18:41:02.027Z,24.90
2022-08-28T18:43:32.177Z,24.89
2022-08-28T18:46:05.393Z,24.89
2022-08-28T18:48:39.185Z,24.87
2022-08-28T18:51:12.358Z,24.88
2022-08-28T18:53:39.170Z,24.88
2022-08-28T18:56:20.387Z,24.88
2022-08-28T18:58:47.943Z,24.86
2022-08-28T19:01:16.250Z,24.88
2022-08-28T19:03:42.831Z,24.88
2022-08-28T19:06:12.839Z,24.88
2022-08-28T19:08:39.695Z,24.88
2022-08-28T19:11:10.434Z,24.88
2022-08-28T19:13:36.931Z,24.86
2022-08-28T19:16:03.987Z,24.87
2022-08-28T19:18:30.593Z,24.85
2022-08-28T19:21:10.889Z,24.87
2022-08-28T19:23:55.496Z,24.84
2022-08-28T19:26:25.954Z,24.80
2022-08-28T19:28:53.255Z,24.81
2022-08-28T19:31:22.395Z,24.81
2022-08-28T19:33:50.017Z,24.79
2022-08-28T19:36:16.612Z,24.75
2022-08-28T19:38:43.277Z,24.72
2022-08-28T19:41:29.662Z,24.74
2022-08-28T19:43:56.268Z,24.72
2022-08-28T19:46:22.886Z,24.73
2022-08-28T19:48:50.805Z,24.73
2022-08-28T19:51:23.505Z,24.70
2022-08-28T19:53:59.314Z,24.72
2022-08-28T19:56:27.367Z,24.71
2022-08-28T19:58:57.644Z,24.71
2022-08-28T20:01:24.497Z,24.68
2022-08-28T20:03:54.449Z,24.68
2022-08-28T20:06:21.049Z,24.68
2022-08-28T20:09:03.658Z,24.70
2022-08-28T20:11:32.409Z,24.72
2022-08-28T20:14:04.831Z,24.72
2022-08-28T20:16:37.002Z,24.71
2022-08-28T20:19:23.013Z,24.71
2022-08-28T20:22:01.712Z,24.71
2022-08-28T20:24:47.972Z,24.71
2022-08-28T20:27:14.595Z,24.69
2022-08-28T20:29:41.205Z,24.68
2022-08-28T20:32:07.677Z,24.67
2022-08-28T20:34:34.525Z,24.67
2022-08-28T20:37:01.850Z,24.66
2022-08-28T20:39:29.044Z,24.65
2022-08-28T20:41:55.924Z,24.65
2022-08-28T20:44:22.754Z,24.64
2022-08-28T20:46:53.765Z,24.63
2022-08-28T20:49:33.725Z,24.64
2022-08-28T20:53:01.562Z,24.64
2022-08-28T20:55:07.862Z,24.64
2022-08-28T20:57:34.625Z,24.64
2022-08-28T21:00:05.342Z,24.63
2022-08-28T21:02:32.354Z,24.61
2022-08-28T21:04:59.003Z,24.62
2022-08-28T21:07:25.990Z,24.62
2022-08-28T21:10:05.374Z,24.60
2022-08-28T21:12:33.431Z,24.63
2022-08-28T21:15:00.188Z,24.64
2022-08-28T21:17:29.848Z,24.63
2022-08-28T21:20:10.684Z,24.65
2022-08-28T21:22:37.554Z,24.65
2022-08-28T21:25:08.425Z,24.65
2022-08-28T21:27:37.233Z,24.64
2022-08-28T21:30:05.108Z,24.63
2022-08-28T21:32:33.985Z,24.63
2022-08-28T21:35:02.209Z,24.63
2022-08-28T21:37:29.176Z,24.63
2022-08-28T21:40:03.161Z,24.64
2022-08-28T21:42:29.759Z,24.64
2022-08-28T21:44:56.338Z,24.60
2022-08-28T21:47:23.746Z,24.61
2022-08-28T21:49:53.197Z,24.60
2022-08-28T21:52:20.399Z,24.60
2022-08-28T21:54:49.543Z,24.60
2022-08-28T21:57:16.177Z,24.59
2022-08-28T21:59:43.433Z,24.58
2022-08-28T22:02:09.895Z,24.57
2022-08-28T22:04:36.656Z,24.57
2022-08-28T22:07:03.181Z,24.56
2022-08-28T22:09:29.744Z,24.54
2022-08-28T22:11:56.188Z,24.53
2022-08-28T22:14:25.119Z,24.52
2022-08-28T22:16:51.742Z,24.51
2022-08-28T22:19:18.354Z,24.51
2022-08-28T22:22:03.273Z,24.50
2022-08-28T22:24:29.897Z,24.48
2022-08-28T22:26:57.704Z,24.48
2022-08-28T22:29:24.502Z,24.47
2022-08-28T22:31:51.017Z,24.47
2022-08-28T22:34:17.509Z,24.47
2022-08-28T22:36:44.437Z,24.47
2022-08-28T22:39:10.998Z,24.45
2022-08-28T22:41:37.568Z,24.46
2022-08-28T22:44:04.578Z,24.45
2022-08-28T22:46:31.127Z,24.43
2022-08-28T22:48:57.676Z,24.44
2022-08-28T22:51:24.128Z,24.44
2022-08-28T22:53:50.805Z,24.43
2022-08-28T22:56:17.628Z,24.41
2022-08-28T22:58:44.326Z,24.41
2022-08-28T23:01:13.703Z,24.39
2022-08-28T23:03:40.698Z,24.38
2022-08-28T23:06:07.553Z,24.37
2022-08-28T23:08:34.339Z,24.36
2022-08-28T23:11:01.156Z,24.37
2022-08-28T23:13:28.254Z,24.36
2022-08-28T23:15:54.698Z,24.36
2022-08-28T23:18:21.264Z,24.37
2022-08-28T23:20:47.970Z,24.36
2022-08-28T23:23:16.927Z,24.36
2022-08-28T23:25:43.865Z,24.35
2022-08-28T23:28:10.398Z,24.34
2022-08-28T23:30:38.917Z,24.35
2022-08-28T23:33:08.465Z,24.34
2022-08-28T23:35:35.312Z,24.36
2022-08-28T23:38:01.786Z,24.36
2022-08-28T23:40:33.127Z,24.35
2022-08-28T23:43:04.132Z,24.36
2022-08-28T23:45:30.880Z,24.35
2022-08-28T23:47:57.457Z,24.36
2022-08-28T23:50:23.966Z,24.34
2022-08-28T23:52:51.409Z,24.33
2022-08-28T23:55:18.743Z,24.32
2022-08-28T23:57:45.757Z,24.32
